createdAt,value
2018-01-05T00:00:25.106Z,64.50
2018-01-05T00:02:52.637Z,64.90
2018-01-05T00:05:20.202Z,65.30
2018-01-05T00:07:47.825Z,63.70
2018-01-05T00:10:15.346Z,63.60
2018-01-05T00:12:42.949Z,64.40
2018-01-05T00:15:11.232Z,64.40
2018-01-05T00:17:38.828Z,64.40
2018-01-05T00:20:06.409Z,64.30
2018-01-05T00:22:34.008Z,64.80
2018-01-05T00:25:02.380Z,64.20
2018-01-05T00:27:29.977Z,64.10
2018-01-05T00:29:57.548Z,63.50
2018-01-05T00:32:25.074Z,63.60
2018-01-05T00:34:53.394Z,63.50
2018-01-05T00:37:20.956Z,63.50
2018-01-05T00:39:48.574Z,61.90
2018-01-05T00:42:16.106Z,62.80
2018-01-05T00:44:43.683Z,63.40
2018-01-05T00:47:11.299Z,63.00
2018-01-05T00:49:38.836Z,63.50
2018-01-05T00:52:06.430Z,62.70
2018-01-05T00:54:33.961Z,62.80
2018-01-05T00:57:02.508Z,63.30
2018-01-05T00:59:30.078Z,63.50
2018-01-05T01:01:57.653Z,63.40
2018-01-05T01:04:25.213Z,63.80
2018-01-05T01:06:52.745Z,63.90
2018-01-05T01:09:20.305Z,65.00
2018-01-05T01:11:48.597Z,65.80
2018-01-05T01:14:16.158Z,65.00
2018-01-05T01:16:44.488Z,65.00
2018-01-05T01:19:12.020Z,65.00
2018-01-05T01:21:39.574Z,65.30
2018-01-05T01:24:07.145Z,64.90
2018-01-05T01:26:34.718Z,64.80
2018-01-05T01:29:02.263Z,65.00
2018-01-05T01:31:29.805Z,64.70
2018-01-05T01:33:57.363Z,64.60
2018-01-05T01:36:24.901Z,65.10
2018-01-05T01:38:52.458Z,64.70
2018-01-05T01:41:20.040Z,64.30
2018-01-05T01:43:47.572Z,64.60
2018-01-05T01:46:15.165Z,65.00
2018-01-05T01:48:49.349Z,64.40
2018-01-05T01:51:16.929Z,63.80
2018-01-05T01:53:44.463Z,63.90
2018-01-05T01:56:12.781Z,64.70
2018-01-05T01:58:40.302Z,64.60
2018-01-05T02:01:07.889Z,64.00
2018-01-05T02:03:35.417Z,63.80
2018-01-05T02:06:02.938Z,64.00
2018-01-05T02:08:30.501Z,63.90
2018-01-05T02:10:58.298Z,64.00
2018-01-05T02:13:25.827Z,64.60
2018-01-05T02:15:54.202Z,64.60
2018-01-05T02:18:21.769Z,64.00
2018-01-05T02:20:49.290Z,64.00
2018-01-05T02:23:16.887Z,63.10
2018-01-05T02:25:44.433Z,63.10
2018-01-05T02:28:12.114Z,63.00
2018-01-05T02:30:39.658Z,62.80
2018-01-05T02:33:07.233Z,62.60
2018-01-05T02:35:34.791Z,63.10
2018-01-05T02:38:02.316Z,63.20
2018-01-05T02:40:29.853Z,62.80
2018-01-05T02:42:57.377Z,62.80
2018-01-05T02:45:24.942Z,62.80
2018-01-05T02:47:52.500Z,63.00
2018-01-05T02:50:20.022Z,62.80
2018-01-05T02:52:47.553Z,63.60
2018-01-05T02:57:57.188Z,64.10
2018-01-05T03:00:24.728Z,64.10
2018-01-05T03:02:52.247Z,64.80
2018-01-05T03:05:19.779Z,63.70
2018-01-05T03:07:47.312Z,64.50
2018-01-05T03:10:14.927Z,63.70
2018-01-05T03:12:42.497Z,63.80
2018-01-05T03:15:10.016Z,64.20
2018-01-05T03:17:37.568Z,63.50
2018-01-05T03:20:05.128Z,63.20
2018-01-05T03:22:32.673Z,63.10
2018-01-05T03:25:00.287Z,63.20
2018-01-05T03:27:27.797Z,64.70
2018-01-05T03:29:55.337Z,63.80
2018-01-05T03:32:22.888Z,63.80
2018-01-05T03:37:32.388Z,63.50
2018-01-05T03:39:59.947Z,63.00
2018-01-05T03:42:27.471Z,62.80
2018-01-05T03:44:55.036Z,62.80
2018-01-05T03:47:23.353Z,62.60
2018-01-05T03:49:51.667Z,62.60
2018-01-05T03:52:20.072Z,62.60
2018-01-05T03:54:47.634Z,62.20
2018-01-05T03:57:15.176Z,62.50
2018-01-05T03:59:42.706Z,62.70
2018-01-05T04:02:10.268Z,62.50
2018-01-05T04:04:37.800Z,62.80
2018-01-05T04:07:05.341Z,63.50
2018-01-05T04:09:32.893Z,62.60
2018-01-05T04:12:00.437Z,62.80
2018-01-05T04:14:28.000Z,62.50
2018-01-05T04:16:55.560Z,62.70
2018-01-05T04:19:23.074Z,62.50
2018-01-05T04:21:51.392Z,62.40
2018-01-05T04:24:18.982Z,62.40
2018-01-05T04:26:46.547Z,64.20
2018-01-05T04:29:14.107Z,63.10
2018-01-05T04:31:41.652Z,63.60
2018-01-05T04:34:09.196Z,63.70
2018-01-05T04:36:36.748Z,64.40
2018-01-05T04:39:04.382Z,63.70
2018-01-05T04:41:31.927Z,63.40
2018-01-05T04:43:59.448Z,63.50
2018-01-05T04:46:27.010Z,64.00
2018-01-05T04:48:54.555Z,63.60
2018-01-05T04:51:22.077Z,63.70
2018-01-05T04:53:49.624Z,63.90
2018-01-05T04:56:17.999Z,64.20
2018-01-05T04:58:46.333Z,64.80
2018-01-05T05:01:13.850Z,64.70
2018-01-05T05:03:41.371Z,64.40
2018-01-05T05:06:08.910Z,64.20
2018-01-05T05:08:36.430Z,63.50
2018-01-05T05:11:03.979Z,64.30
2018-01-05T05:13:32.257Z,65.50
2018-01-05T05:15:59.789Z,65.40
2018-01-05T05:18:27.339Z,64.40
2018-01-05T05:20:54.854Z,64.90
2018-01-05T05:23:22.423Z,65.10
2018-01-05T05:25:49.936Z,64.50
2018-01-05T05:28:18.250Z,64.70
2018-01-05T05:30:45.864Z,64.70
2018-01-05T05:33:13.404Z,65.20
2018-01-05T05:35:40.964Z,65.00
2018-01-05T05:38:08.478Z,64.50
2018-01-05T05:40:35.996Z,64.90
2018-01-05T05:43:03.544Z,65.00
2018-01-05T05:45:31.095Z,63.80
2018-01-05T05:47:58.640Z,64.70
2018-01-05T05:50:26.170Z,64.90
2018-01-05T05:52:53.714Z,64.70
2018-01-05T05:55:21.233Z,64.80
2018-01-05T05:57:48.780Z,65.30
2018-01-05T06:00:16.328Z,65.40
2018-01-05T06:02:43.852Z,66.10
2018-01-05T06:05:11.390Z,66.00
2018-01-05T06:07:38.941Z,65.50
2018-01-05T06:10:06.488Z,65.50
2018-01-05T06:12:34.018Z,64.60
2018-01-05T06:15:01.581Z,65.20
2018-01-05T06:17:29.098Z,65.40
2018-01-05T06:19:56.616Z,65.90
2018-01-05T06:22:24.144Z,65.30
2018-01-05T06:24:52.389Z,65.60
2018-01-05T06:27:19.911Z,66.30
2018-01-05T06:29:47.424Z,65.40
2018-01-05T06:32:14.972Z,66.20
2018-01-05T06:34:43.255Z,66.30
2018-01-05T06:37:10.800Z,66.20
2018-01-05T06:39:38.617Z,65.90
2018-01-05T06:42:06.173Z,66.70
2018-01-05T06:44:33.683Z,67.10
2018-01-05T06:47:01.208Z,66.60
2018-01-05T06:49:28.807Z,67.00
2018-01-05T06:51:56.335Z,66.80
2018-01-05T06:54:23.875Z,66.20
2018-01-05T06:56:51.425Z,66.70
2018-01-05T06:59:18.971Z,68.20
2018-01-05T07:01:46.488Z,68.10
2018-01-05T07:04:14.032Z,67.70
2018-01-05T07:06:41.570Z,67.60
2018-01-05T07:09:09.150Z,67.30
2018-01-05T07:11:36.704Z,67.20
2018-01-05T07:14:04.263Z,67.40
2018-01-05T07:16:31.784Z,66.90
2018-01-05T07:18:59.314Z,66.80
2018-01-05T07:21:26.876Z,66.80
2018-01-05T07:23:54.436Z,67.20
2018-01-05T07:26:22.000Z,65.90
2018-01-05T07:28:49.576Z,66.00
2018-01-05T07:31:17.867Z,66.50
2018-01-05T07:33:45.397Z,66.50
2018-01-05T07:36:13.716Z,66.40
2018-01-05T07:38:41.244Z,66.30
2018-01-05T07:41:09.655Z,67.10
2018-01-05T07:43:37.203Z,67.00
2018-01-05T07:46:04.784Z,67.60
2018-01-05T07:48:32.500Z,67.40
2018-01-05T07:51:00.026Z,67.20
2018-01-05T07:53:27.584Z,67.50
2018-01-05T07:55:55.140Z,67.70
2018-01-05T07:58:22.795Z,67.70
2018-01-05T08:00:50.302Z,66.30
2018-01-05T08:03:17.829Z,66.00
2018-01-05T08:05:45.392Z,66.60
2018-01-05T08:08:12.947Z,66.80
2018-01-05T08:10:40.525Z,67.10
2018-01-05T08:13:08.051Z,66.70
2018-01-05T08:15:35.571Z,66.80
2018-01-05T08:18:03.312Z,66.20
2018-01-05T08:20:31.664Z,65.90
2018-01-05T08:22:59.193Z,65.90
2018-01-05T08:25:26.752Z,66.90
2018-01-05T08:27:54.285Z,67.10
2018-01-05T08:30:21.845Z,67.10
2018-01-05T08:32:50.124Z,67.10
2018-01-05T08:35:17.711Z,67.10
2018-01-05T08:37:45.274Z,66.80
2018-01-05T08:40:12.866Z,64.90
2018-01-05T08:42:40.467Z,64.70
2018-01-05T08:45:08.048Z,64.10
2018-01-05T08:47:35.612Z,64.30
2018-01-05T08:50:03.141Z,62.80
2018-01-05T08:52:30.777Z,62.60
2018-01-05T08:54:58.348Z,62.50
2018-01-05T08:57:25.864Z,62.40
2018-01-05T08:59:53.394Z,61.80
2018-01-05T09:02:20.944Z,61.80
2018-01-05T09:04:49.277Z,60.90
2018-01-05T09:07:16.898Z,60.90
2018-01-05T09:09:44.416Z,60.50
2018-01-05T09:12:11.969Z,60.40
2018-01-05T09:14:39.486Z,60.80
2018-01-05T09:19:49.035Z,59.80
2018-01-05T09:22:16.549Z,58.80
2018-01-05T09:24:44.129Z,59.10
2018-01-05T09:27:11.756Z,58.70
2018-01-05T09:29:39.266Z,59.40
2018-01-05T09:32:06.792Z,58.90
2018-01-05T09:34:34.348Z,58.90
2018-01-05T09:37:01.909Z,58.90
2018-01-05T09:39:29.472Z,58.30
2018-01-05T09:41:57.022Z,58.80
2018-01-05T09:44:24.595Z,58.50
2018-01-05T09:46:52.888Z,58.20
2018-01-05T09:49:20.396Z,58.30
2018-01-05T09:51:47.956Z,58.10
2018-01-05T09:54:15.478Z,58.10
2018-01-05T09:56:43.002Z,58.30
2018-01-05T09:59:10.586Z,58.30
2018-01-05T10:01:38.878Z,58.80
2018-01-05T10:04:06.406Z,58.70
2018-01-05T10:06:33.956Z,58.60
2018-01-05T10:09:01.486Z,58.50
2018-01-05T10:11:29.028Z,58.50
2018-01-05T10:13:57.159Z,58.40
2018-01-05T10:16:25.469Z,58.60
2018-01-05T10:18:53.262Z,58.60
2018-01-05T10:21:20.793Z,58.80
2018-01-05T10:23:48.316Z,58.80
2018-01-05T10:26:15.876Z,58.80
2018-01-05T10:28:43.411Z,58.50
2018-01-05T10:31:10.991Z,58.50
2018-01-05T10:33:38.530Z,58.80
2018-01-05T10:36:06.104Z,58.40
2018-01-05T10:38:33.652Z,58.20
2018-01-05T10:41:01.294Z,58.00
2018-01-05T10:43:28.839Z,57.80
2018-01-05T10:45:56.358Z,57.50
2018-01-05T10:48:23.911Z,57.80
2018-01-05T10:50:51.448Z,57.80
2018-01-05T10:53:19.012Z,57.60
2018-01-05T10:55:46.571Z,57.50
2018-01-05T10:58:14.132Z,57.40
2018-01-05T11:00:41.724Z,57.80
2018-01-05T11:03:09.264Z,57.70
2018-01-05T11:05:36.957Z,57.60
2018-01-05T11:08:04.568Z,57.90
2018-01-05T11:10:32.294Z,57.50
2018-01-05T11:12:59.822Z,57.60
2018-01-05T11:15:27.394Z,57.70
2018-01-05T11:17:54.986Z,58.10
2018-01-05T11:20:22.538Z,58.20
2018-01-05T11:22:50.068Z,58.30
2018-01-05T11:25:17.643Z,58.40
2018-01-05T11:27:45.193Z,58.80
2018-01-05T11:30:13.528Z,58.90
2018-01-05T11:32:41.057Z,58.80
2018-01-05T11:35:08.616Z,58.10
2018-01-05T11:37:36.156Z,58.30
2018-01-05T11:40:03.957Z,58.40
2018-01-05T11:42:31.472Z,58.70
2018-01-05T11:44:59.797Z,58.90
2018-01-05T11:47:27.350Z,58.80
2018-01-05T11:49:54.908Z,58.80
2018-01-05T11:52:22.458Z,59.00
2018-01-05T11:54:49.985Z,59.00
2018-01-05T11:57:18.311Z,58.90
2018-01-05T11:59:45.871Z,58.80
2018-01-05T12:02:13.396Z,59.00
2018-01-05T12:04:40.924Z,58.60
2018-01-05T12:07:08.506Z,58.80
2018-01-05T12:09:36.804Z,59.10
2018-01-05T12:12:04.316Z,59.10
2018-01-05T12:14:31.875Z,59.20
2018-01-05T12:16:59.436Z,59.20
2018-01-05T12:19:26.958Z,59.60
2018-01-05T12:21:54.520Z,59.80
2018-01-05T12:24:22.080Z,59.70
2018-01-05T12:26:49.608Z,59.40
2018-01-05T12:29:17.159Z,59.40
2018-01-05T12:31:45.512Z,59.00
2018-01-05T12:34:13.077Z,59.00
2018-01-05T12:36:40.641Z,59.30
2018-01-05T12:39:08.196Z,59.60
2018-01-05T12:41:35.720Z,59.80
2018-01-05T12:44:03.288Z,59.80
2018-01-05T12:46:30.878Z,59.60
2018-01-05T12:48:58.434Z,59.70
2018-01-05T12:51:25.967Z,59.80
2018-01-05T12:53:53.570Z,59.60
2018-01-05T12:56:21.976Z,59.60
2018-01-05T12:58:49.496Z,59.60
2018-01-05T13:01:17.122Z,59.80
2018-01-05T13:03:44.680Z,60.10
2018-01-05T13:06:12.204Z,60.00
2018-01-05T13:08:39.735Z,59.60
2018-01-05T13:11:07.299Z,59.70
2018-01-05T13:13:35.577Z,60.80
2018-01-05T13:16:03.140Z,60.10
2018-01-05T13:18:31.452Z,60.60
2018-01-05T13:20:59.030Z,60.60
2018-01-05T13:23:26.548Z,61.10
2018-01-05T13:25:54.109Z,61.40
2018-01-05T13:28:21.672Z,61.50
2018-01-05T13:30:49.244Z,61.70
2018-01-05T13:33:16.796Z,61.40
2018-01-05T13:35:44.320Z,61.60
2018-01-05T13:38:11.900Z,61.90
2018-01-05T13:40:40.124Z,62.20
2018-01-05T13:43:07.656Z,62.50
2018-01-05T13:45:35.224Z,63.00
2018-01-05T13:48:02.748Z,63.90
2018-01-05T13:50:30.314Z,64.00
2018-01-05T13:52:57.850Z,64.40
2018-01-05T13:55:25.410Z,64.70
2018-01-05T13:57:53.004Z,64.80
2018-01-05T14:00:20.568Z,64.90
2018-01-05T14:02:48.182Z,65.30
2018-01-05T14:05:15.736Z,65.70
2018-01-05T14:07:43.261Z,65.60
2018-01-05T14:10:10.818Z,65.70
2018-01-05T14:12:38.382Z,65.80
2018-01-05T14:15:05.952Z,65.90
2018-01-05T14:17:33.473Z,65.90
2018-01-05T14:20:01.102Z,66.20
2018-01-05T14:22:28.624Z,66.70
2018-01-05T14:24:56.258Z,66.70
2018-01-05T14:27:23.816Z,67.00
2018-01-05T14:29:51.380Z,67.20
2018-01-05T14:32:18.924Z,67.40
2018-01-05T14:34:47.224Z,67.60
2018-01-05T14:37:14.872Z,67.40
2018-01-05T14:39:42.396Z,67.40
2018-01-05T14:42:09.948Z,67.80
2018-01-05T14:44:37.504Z,67.90
2018-01-05T14:47:05.040Z,68.00
2018-01-05T14:49:32.606Z,68.20
2018-01-05T14:52:00.171Z,68.60
2018-01-05T14:54:27.699Z,68.60
2018-01-05T14:56:55.289Z,68.60
2018-01-05T14:59:22.818Z,68.70
2018-01-05T15:01:50.382Z,68.70
2018-01-05T15:04:17.940Z,68.70
2018-01-05T15:06:45.519Z,68.90
2018-01-05T15:09:13.031Z,69.00
2018-01-05T15:11:40.550Z,69.00
2018-01-05T15:14:08.101Z,69.20
2018-01-05T15:16:35.669Z,69.20
2018-01-05T15:19:03.227Z,69.00
2018-01-05T15:21:30.760Z,69.20
2018-01-05T15:23:58.283Z,69.00
2018-01-05T15:26:26.484Z,69.20
2018-01-05T15:28:54.050Z,69.30
2018-01-05T15:31:21.630Z,69.60
2018-01-05T15:33:49.146Z,69.70
2018-01-05T15:36:16.817Z,69.40
2018-01-05T15:38:44.431Z,69.20
2018-01-05T15:41:12.077Z,69.20
2018-01-05T15:43:39.656Z,69.10
2018-01-05T15:46:07.949Z,70.10
2018-01-05T15:48:35.467Z,70.10
2018-01-05T15:51:03.028Z,70.40
2018-01-05T15:53:30.565Z,70.90
2018-01-05T15:55:58.137Z,71.20
2018-01-05T15:58:25.703Z,71.30
2018-01-05T16:00:53.268Z,71.50
2018-01-05T16:03:20.871Z,71.70
2018-01-05T16:05:48.439Z,71.70
2018-01-05T16:08:16.052Z,71.90
2018-01-05T16:10:43.601Z,72.00
2018-01-05T16:13:11.164Z,72.20
2018-01-05T16:15:38.680Z,72.20
2018-01-05T16:18:06.269Z,71.80
2018-01-05T16:20:33.851Z,71.80
2018-01-05T16:23:01.576Z,71.40
2018-01-05T16:25:29.095Z,71.40
2018-01-05T16:27:56.654Z,71.20
2018-01-05T16:30:24.943Z,70.70
2018-01-05T16:32:52.508Z,70.70
2018-01-05T16:35:20.409Z,70.60
2018-01-05T16:37:47.992Z,70.40
2018-01-05T16:40:15.579Z,69.60
2018-01-05T16:42:43.197Z,69.50
2018-01-05T16:45:10.720Z,69.20
2018-01-05T16:47:38.311Z,69.10
2018-01-05T16:50:06.628Z,69.00
2018-01-05T16:52:34.194Z,68.80
2018-01-05T16:55:01.791Z,69.10
2018-01-05T16:57:29.356Z,68.80
2018-01-05T16:59:57.673Z,69.20
2018-01-05T17:02:25.235Z,69.10
2018-01-05T17:04:52.826Z,69.20
2018-01-05T17:07:20.424Z,69.70
2018-01-05T17:09:48.751Z,69.70
2018-01-05T17:12:16.291Z,69.70
2018-01-05T17:14:43.869Z,69.80
2018-01-05T17:17:11.456Z,69.90
2018-01-05T17:19:39.100Z,69.80
2018-01-05T17:22:06.714Z,69.90
2018-01-05T17:24:34.273Z,69.60
2018-01-05T17:27:01.825Z,69.60
2018-01-05T17:29:29.402Z,69.90
2018-01-05T17:31:57.040Z,70.10
2018-01-05T17:34:24.609Z,70.10
2018-01-05T17:36:52.960Z,70.50
2018-01-05T17:39:20.558Z,70.50
2018-01-05T17:41:48.128Z,70.40
2018-01-05T17:44:15.742Z,70.20
2018-01-05T17:46:43.315Z,70.00
2018-01-05T17:49:10.895Z,70.00
2018-01-05T17:51:38.467Z,69.90
2018-01-05T17:54:06.062Z,69.70
2018-01-05T17:56:33.640Z,69.90
2018-01-05T17:59:01.228Z,70.30
2018-01-05T18:01:28.825Z,70.10
2018-01-05T18:03:56.383Z,69.90
2018-01-05T18:06:23.943Z,70.20
2018-01-05T18:08:51.857Z,69.70
2018-01-05T18:11:19.377Z,69.80
2018-01-05T18:13:46.923Z,69.60
2018-01-05T18:16:14.539Z,69.80
2018-01-05T18:18:42.147Z,70.10
2018-01-05T18:21:09.700Z,69.80
2018-01-05T18:23:37.275Z,69.80
2018-01-05T18:26:04.835Z,70.00
2018-01-05T18:28:32.393Z,70.20
2018-01-05T18:31:00.718Z,71.00
2018-01-05T18:33:29.030Z,70.60
2018-01-05T18:35:56.629Z,70.60
2018-01-05T18:38:24.157Z,70.90
2018-01-05T18:40:51.763Z,71.00
2018-01-05T18:43:19.359Z,70.80
2018-01-05T18:45:46.891Z,71.10
2018-01-05T18:48:14.507Z,71.00
2018-01-05T18:50:42.117Z,70.60
2018-01-05T18:53:09.692Z,71.10
2018-01-05T18:55:38.048Z,70.70
2018-01-05T18:58:05.607Z,70.70
2018-01-05T19:00:33.155Z,71.10
2018-01-05T19:03:00.713Z,70.90
2018-01-05T19:05:28.299Z,70.60
2018-01-05T19:07:55.860Z,71.00
2018-01-05T19:10:23.548Z,71.00
2018-01-05T19:12:51.099Z,70.60
2018-01-05T19:15:18.655Z,70.50
2018-01-05T19:17:46.966Z,70.90
2018-01-05T19:20:14.568Z,70.80
2018-01-05T19:22:42.172Z,70.70
2018-01-05T19:25:09.737Z,70.60
2018-01-05T19:27:37.350Z,71.20
2018-01-05T19:30:04.914Z,70.70
2018-01-05T19:32:32.591Z,70.50
2018-01-05T19:35:00.204Z,70.60
2018-01-05T19:37:27.789Z,71.00
2018-01-05T19:39:55.383Z,70.60
2018-01-05T19:42:22.945Z,70.50
2018-01-05T19:44:50.543Z,70.20
2018-01-05T19:47:18.880Z,70.00
2018-01-05T19:49:46.490Z,70.00
2018-01-05T19:52:14.103Z,69.70
2018-01-05T19:54:41.687Z,69.90
2018-01-05T19:57:09.288Z,69.20
2018-01-05T19:59:36.854Z,69.20
2018-01-05T20:02:04.442Z,69.10
2018-01-05T20:04:32.044Z,69.00
2018-01-05T20:06:59.607Z,68.90
2018-01-05T20:09:27.210Z,69.20
2018-01-05T20:11:54.809Z,68.80
2018-01-05T20:14:22.383Z,69.10
2018-01-05T20:16:50.045Z,69.00
2018-01-05T20:19:17.584Z,68.90
2018-01-05T20:21:45.196Z,69.00
2018-01-05T20:24:13.146Z,69.00
2018-01-05T20:26:40.672Z,69.00
2018-01-05T20:29:08.295Z,69.00
2018-01-05T20:31:35.875Z,69.80
2018-01-05T20:34:03.462Z,70.40
2018-01-05T20:36:31.053Z,70.10
2018-01-05T20:38:58.658Z,69.90
2018-01-05T20:41:26.223Z,69.10
2018-01-05T20:43:53.800Z,69.20
2018-01-05T20:46:21.413Z,69.40
2018-01-05T20:48:49.062Z,69.70
2018-01-05T20:51:16.710Z,69.70
2018-01-05T20:53:44.328Z,70.00
2018-01-05T20:56:11.932Z,69.90
2018-01-05T20:58:39.557Z,70.10
2018-01-05T21:01:07.121Z,70.30
2018-01-05T21:03:34.733Z,70.00
2018-01-05T21:06:02.302Z,69.90
2018-01-05T21:08:29.903Z,70.30
2018-01-05T21:10:57.421Z,70.70
2018-01-05T21:13:25.032Z,70.50
2018-01-05T21:15:52.633Z,70.40
2018-01-05T21:18:20.230Z,70.00
2018-01-05T21:20:47.795Z,70.00
2018-01-05T21:23:15.418Z,69.80
2018-01-05T21:25:43.027Z,69.90
2018-01-05T21:28:10.592Z,70.10
2018-01-05T21:30:38.946Z,70.20
2018-01-05T21:33:07.264Z,69.80
2018-01-05T21:35:34.883Z,69.80
2018-01-05T21:38:02.468Z,69.90
2018-01-05T21:40:30.055Z,69.60
2018-01-05T21:42:57.651Z,69.80
2018-01-05T21:45:25.251Z,69.70
2018-01-05T21:47:52.841Z,69.80
2018-01-05T21:50:20.451Z,69.90
2018-01-05T21:52:48.026Z,69.70
2018-01-05T21:55:15.633Z,70.00
2018-01-05T21:57:43.189Z,70.30
2018-01-05T22:00:10.785Z,70.50
2018-01-05T22:02:38.380Z,70.40
2018-01-05T22:05:05.979Z,70.50
2018-01-05T22:07:33.596Z,70.90
2018-01-05T22:10:01.209Z,71.60
2018-01-05T22:12:28.818Z,71.00
2018-01-05T22:14:56.386Z,71.00
2018-01-05T22:17:23.900Z,70.50
2018-01-05T22:19:51.497Z,70.80
2018-01-05T22:22:19.104Z,70.70
2018-01-05T22:24:46.686Z,70.70
2018-01-05T22:27:15.051Z,70.60
2018-01-05T22:29:43.388Z,70.60
2018-01-05T22:32:11.005Z,70.50
2018-01-05T22:34:38.583Z,70.40
2018-01-05T22:37:06.204Z,70.30
2018-01-05T22:39:33.788Z,70.40
2018-01-05T22:42:01.404Z,70.20
2018-01-05T22:44:29.024Z,70.10
2018-01-05T22:46:56.628Z,70.10
2018-01-05T22:49:24.185Z,70.00
2018-01-05T22:51:51.784Z,69.70
2018-01-05T22:54:20.138Z,70.50
2018-01-05T22:56:48.238Z,70.40
2018-01-05T22:59:16.579Z,70.60
2018-01-05T23:01:44.150Z,70.50
2018-01-05T23:04:11.756Z,69.80
2018-01-05T23:06:39.314Z,70.20
2018-01-05T23:09:06.916Z,70.60
2018-01-05T23:11:34.488Z,70.30
2018-01-05T23:14:02.113Z,70.90
2018-01-05T23:16:29.715Z,71.00
2018-01-05T23:18:57.289Z,71.10
2018-01-05T23:21:24.901Z,70.80
2018-01-05T23:23:52.457Z,70.90
2018-01-05T23:26:20.050Z,70.50
2018-01-05T23:28:47.641Z,70.60
2018-01-05T23:31:15.978Z,70.80
2018-01-05T23:33:43.579Z,70.70
2018-01-05T23:36:11.137Z,70.50
2018-01-05T23:38:38.772Z,70.40
2018-01-05T23:41:06.349Z,70.40
2018-01-05T23:43:33.934Z,70.80
2018-01-05T23:46:01.570Z,70.70
2018-01-05T23:48:29.149Z,70.20
2018-01-05T23:50:57.518Z,70.00
2018-01-05T23:53:25.888Z,70.60
2018-01-05T23:55:53.499Z,69.80
2018-01-05T23:58:21.066Z,70.00
